Platzwetter Flugplatz Wels

Flugwetter Linz LOWL

[Quelle: ADDS]
METAR
LOWL 160320Z AUTO 24010KT 9999 FEW038 BKN040 04/M01 Q1017 =
LOWL 152315Z 1600/1624 27015KT 9999 SCT020 BKN045 TX05/1612Z TNM01/1624Z BECMG 1602/1604 28010KT FEW035 SCT150 BECMG 1608/1611 30004KT CAVOK PROB40 1622/1624 VRB01KT 4000 BR NSC
TAF
LOWL 152315Z 1600/1624 27015KT 9999 SCT020 BKN045 TX05/1612Z TNM01/1624Z BECMG 1602/1604 28010KT FEW035 SCT150 BECMG 1608/1611 30004KT CAVOK PROB40 1622/1624 VRB01KT 4000 BR NSC =

Flugwetter Salzburg LOWS

[Quelle: ADDS]
METAR
LOWS 160320Z AUTO 16004KT 9999 NSC M02/M04 Q1018 =
LOWS 152315Z 1600/1624 28005KT 9999 FEW050 BKN080 TX06/1613Z TNM02/1607Z BECMG 1600/1603 15006KT CAVOK TEMPO 1610/1616 32006KT
TAF
LOWS 152315Z 1600/1624 28005KT 9999 FEW050 BKN080 TX06/1613Z TNM02/1607Z BECMG 1600/1603 15006KT CAVOK TEMPO 1610/1616 32006KT =

Wind - Verlauf

Windrichtung - Verlauf

Temperatur - Verlauf

Relative Luftfeuchtigkeit - Verlauf

Luftdruck - Verlauf


JU 52 Nostalgie-Rundflüge - hier am Flugplatz Wels!

Tickets, Termine und Infos, hier am Flugplatz Wels. Tickethotline +43 7242 26499 0

Pilot für einen Tag - Erfülle Dir den Traum vom Fliegen!

Werde einen Tag lang Pilot bei und mit dem Fliegerclub Weiße Möwe in Wels!

Stadt - Wels

Ausflugsziele & Sehenswürdigkeiten
in Wels und Umgebung

Cookies erleichtern die Bereitstellung unserer Dienste. Mit der Nutzung unserer Dienste erklären Sie sich damit einverstanden, dass wir Cookies verwenden.
Weitere Informationen Ok